• Join FlightAware (Why Join?)
  • Login
  • US Flag 
03:35AM EST


 

Airport Tracker/Info


-or-


 

Live Flight TrackerFlight Track Log ✈ C-GONN ✈ 17-Apr-2013 ✈ CYVR - CYZP

Flight Track Log - Related Links

Times and Time Zones

All times are in EDT time to prevent confusion due to time zone crossing. See the C-GONN flight status page for this flight to view local times or setup timezone preferences in your user account.

Time Position Orientation Groundspeed Altitude Reporting Facility
EDT Latitude Longitude Course Direction KTS MPH feet Rate Location/Type
04:12PM 49.1667 -123.2167 302° West 10 12 100  Level Vancouver Center
04:13PM 49.1667 -123.1667 90° East 110 127 1,200 1,020 Climbing Vancouver Center
04:14PM 49.1333 -123.1333 147° Southeast 130 150 2,200 1,080 Climbing Vancouver Center
04:15PM 49.1000 -123.1167 162° South 130 150 3,400 1,260 Climbing Vancouver Center
04:16PM 49.0667 -123.1167 180° South 140 161 4,800 1,080 Climbing Vancouver Center
04:17PM 49.1607 -123.3706 294° West  Level FlightAware Approximate
04:17PM 49.0333 -123.1333 198° South 150 173 5,600  Level Vancouver Center
04:18PM 49.1876 -123.4607 302° West  Level FlightAware Approximate
04:18PM 49.0333 -123.1833 270° West 160 184 6,600  Level Vancouver Center
04:19PM 49.0500 -123.2667 287° West 160 184 7,800 1,140 Climbing Vancouver Center
04:20PM 49.0500 -123.3333 270° West 160 184 8,900 1,020 Climbing Vancouver Center
04:21PM 49.0667 -123.4000 291° West 160 184 9,900 1,080 Climbing Vancouver Center
04:22PM 49.1000 -123.4500 316° Northwest 160 184 11,100 1,080 Climbing Vancouver Center
04:23PM 49.1333 -123.5000 316° Northwest 150 173 12,100 1,020 Climbing Vancouver Center
04:24PM 49.1500 -123.5500 297° West 150 173 13,200 900 Climbing Vancouver Center
04:25PM 49.1833 -123.6000 316° Northwest 150 173 14,000 360 Climbing Vancouver Center
04:26PM 49.2167 -123.6500 316° Northwest 170 196 14,000  Level Vancouver Center
04:27PM 49.2500 -123.7167 307° West 200 230 14,000 -60 Level Vancouver Center
04:28PM 49.2833 -123.7667 316° Northwest 220 253 13,900  Descending Vancouver Center
04:29PM 49.3333 -123.8500 313° West 220 253 14,000 60 Climbing Vancouver Center
04:30PM 49.3667 -123.9333 302° West 220 253 14,100  Climbing Vancouver Center
04:31PM 49.4000 -124.0333 297° West 230 265 14,000 -60 Descending Vancouver Center
04:32PM 49.4333 -124.1000 308° West 230 265 14,000  Level Vancouver Center
04:33PM 49.4500 -124.1833 287° West 230 265 14,000  Level Vancouver Center
04:34PM 49.4833 -124.2667 302° West 230 265 14,000 -60 Level Vancouver Center
04:35PM 49.5333 -124.3333 319° Northwest 230 265 13,900 -60 Descending Vancouver Center
04:36PM 49.5833 -124.4167 313° West 220 253 13,900  Level Vancouver Center
04:37PM 49.6167 -124.5000 302° West 220 253 13,900  Level Vancouver Center
04:38PM 49.6500 -124.5667 308° West 220 253 13,900  Level Vancouver Center
04:39PM 49.7000 -124.6333 319° Northwest 220 253 14,000  Climbing Vancouver Center
04:40PM 49.7333 -124.7000 308° West 220 253 13,900  Descending Vancouver Center
04:41PM 49.7833 -124.7833 313° West 220 253 14,000  Climbing Vancouver Center
04:42PM 49.8167 -124.8667 302° West 220 253 14,000  Level Vancouver Center
04:43PM 49.8667 -124.9333 319° Northwest 220 253 14,000  Level Vancouver Center
04:44PM 49.9000 -124.9833 316° Northwest 220 253 14,000  Level Vancouver Center
04:45PM 49.9500 -125.0667 313° West 220 253 14,000 -60 Level Vancouver Center
04:46PM 49.9833 -125.1500 302° West 220 253 13,900 -60 Descending Vancouver Center
04:47PM 50.0167 -125.2333 302° West 220 253 13,900  Level Vancouver Center
04:48PM 50.0667 -125.2833 327° Northwest 220 253 14,000  Climbing Vancouver Center
04:49PM 50.1000 -125.3667 302° West 220 253 14,000  Level Vancouver Center
04:50PM 50.1500 -125.4333 320° Northwest 220 253 14,000  Level Vancouver Center
04:51PM 50.1833 -125.5000 308° West 220 253 14,000  Level Vancouver Center
04:52PM 50.2333 -125.5667 320° Northwest 220 253 14,000  Level Vancouver Center
04:53PM 50.2667 -125.6500 302° West 220 253 14,000  Level Vancouver Center
04:54PM 50.3000 -125.7000 316° Northwest 220 253 14,000  Level Vancouver Center
04:55PM 50.3333 -125.7833 302° West 220 253 14,000  Level Vancouver Center
04:56PM 50.3667 -125.8667 302° West 220 253 14,000  Level Vancouver Center
04:57PM 50.4167 -125.9500 313° West 220 253 14,000  Level Vancouver Center
04:58PM 50.4500 -126.0000 316° Northwest 220 253 14,100  Climbing Vancouver Center
04:59PM 50.5000 -126.0833 313° West 220 253 14,000 -60 Descending Vancouver Center
05:00PM 50.5333 -126.1667 302° West 220 253 14,000  Level Vancouver Center
05:01PM 50.5667 -126.2500 302° West 220 253 14,000  Level Vancouver Center
05:02PM 50.6167 -126.3167 320° Northwest 220 253 14,000  Level Vancouver Center
05:03PM 50.6500 -126.3833 308° West 220 253 14,000  Level Vancouver Center
05:04PM 50.6833 -126.4667 302° West 220 253 14,000  Level Vancouver Center
05:05PM 50.7333 -126.5500 313° West 220 253 14,000  Level Vancouver Center
05:06PM 50.7500 -126.6000 298° West 220 253 14,000  Level Vancouver Center
05:07PM 50.7833 -126.6833 302° West 220 253 14,000  Level Vancouver Center
05:08PM 50.8333 -126.7667 314° West 220 253 14,000  Level Vancouver Center
05:09PM 50.8667 -126.8333 308° West 220 253 14,000  Level Vancouver Center
05:10PM 50.9000 -126.9167 302° West 220 253 14,000  Level Vancouver Center
05:11PM 50.9500 -126.9833 320° Northwest 220 253 14,000  Level Vancouver Center
05:12PM 50.9833 -127.0667 302° West 220 253 14,000  Level Vancouver Center
05:13PM 51.0333 -127.1500 314° West 220 253 14,000  Level Vancouver Center
05:14PM 51.0667 -127.2333 303° West 220 253 14,000  Level Vancouver Center
05:15PM 51.0833 -127.2833 298° West 220 253 14,000  Level Vancouver Center
05:16PM 51.1333 -127.3667 314° West 220 253 14,000  Level Vancouver Center
05:17PM 51.1667 -127.4500 303° West 220 253 14,000  Level Vancouver Center
05:18PM 51.2167 -127.5333 314° West 220 253 14,000  Level Vancouver Center
05:19PM 51.2500 -127.6167 303° West 220 253 14,000  Level Vancouver Center
05:20PM 51.2833 -127.7000 303° West 220 253 14,000  Level Vancouver Center
05:21PM 51.3333 -127.7500 328° Northwest 220 253 14,000  Level Vancouver Center
05:22PM 51.3500 -127.8333 288° West 220 253 14,000 -60 Level Vancouver Center
05:23PM 51.3833 -127.9167 303° West 220 253 13,900 -60 Descending Vancouver Center
05:24PM 51.4333 -128.0000 314° West 220 253 13,900  Level Vancouver Center
05:25PM 51.4667 -128.0833 303° West 220 253 13,900  Level Vancouver Center
05:26PM 51.5167 -128.1667 314° West 220 253 13,900  Level Vancouver Center
05:27PM 51.5500 -128.2333 309° West 220 253 13,900  Level Vancouver Center
05:28PM 51.5667 -128.3167 288° West 220 253 13,900  Level Vancouver Center
05:29PM 51.6167 -128.4000 314° West 220 253 13,900  Level Vancouver Center
05:30PM 51.6500 -128.4833 303° West 220 253 13,900  Level Vancouver Center
05:31PM 51.7000 -128.5667 314° West 220 253 13,900  Level Vancouver Center
05:32PM 51.7333 -128.6333 309° West 220 253 13,900  Level Vancouver Center
05:33PM 51.7667 -128.7167 303° West 220 253 13,900  Level Vancouver Center
05:34PM 51.8000 -128.8000 303° West 220 253 13,900  Level Vancouver Center
05:35PM 51.8333 -128.8833 303° West 220 253 13,900  Level Vancouver Center
05:36PM 51.8833 -128.9667 314° West 220 253 13,900  Level Vancouver Center
05:37PM 51.9167 -129.0500 303° West 220 253 13,900  Level Vancouver Center
05:38PM 51.9500 -129.1333 303° West 230 265 13,900  Level Vancouver Center
05:39PM 51.9833 -129.2000 309° West 230 265 13,900  Level Vancouver Center
05:40PM 52.0167 -129.2833 303° West 230 265 13,900  Level Vancouver Center
05:41PM 52.0667 -129.3667 314° West 230 265 13,900  Level Vancouver Center
05:42PM 52.1000 -129.4500 303° West 220 253 13,900 60 Level Vancouver Center
05:43PM 52.1333 -129.5333 303° West 230 265 14,100 120 Climbing Vancouver Center
05:44PM 52.1667 -129.6333 299° West 220 253 14,200  Climbing Vancouver Center
05:45PM 52.2167 -129.6833 329° Northwest 220 253 14,200  Level Vancouver Center
05:46PM 52.2500 -129.7667 303° West 230 265 14,200  Level Vancouver Center
05:47PM 52.2667 -129.8667 285° West 230 265 14,200  Level Vancouver Center
05:48PM 52.3167 -129.9500 314° West 230 265 14,200  Level Vancouver Center
05:49PM 52.3500 -130.0333 303° West 230 265 14,200 -120 Level Vancouver Center
05:50PM 52.4000 -130.1167 315° West 230 265 14,000 -120 Descending Vancouver Center
05:51PM 52.4167 -130.2167 285° West 230 265 14,000  Level Vancouver Center
05:52PM 52.4667 -130.3000 315° West 230 265 14,000  Level Vancouver Center
05:53PM 52.5000 -130.3500 318° Northwest 230 265 14,000  Level Vancouver Center
05:54PM 52.5500 -130.4667 305° West 230 265 14,000  Level Vancouver Center
05:55PM 52.5667 -130.5333 292° West 230 265 14,000  Level Vancouver Center
05:56PM 52.6167 -130.6167 315° West 230 265 14,000  Level Vancouver Center
05:57PM 52.6500 -130.7167 299° West 230 265 14,000  Level Vancouver Center
05:58PM 52.6833 -130.8000 303° West 230 265 14,000 -300 Level Vancouver Center
05:59PM 52.7167 -130.8833 303° West 230 265 13,500 -900 Descending Vancouver Center
06:00PM 52.7667 -130.9833 310° West 240 276 12,300 -1,080 Descending Vancouver Center
06:01PM 52.8000 -131.0667 304° West 240 276 11,400 -1,020 Descending Vancouver Center
06:02PM 52.8333 -131.1500 304° West 240 276 10,300 -1,140 Descending Vancouver Center
06:03PM 52.8667 -131.2500 299° West 240 276 9,200 -1,080 Descending Vancouver Center
06:04PM 52.9167 -131.3333 315° West 240 276 8,200 -1,020 Descending Vancouver Center
06:05PM 52.9333 -131.4167 288° West 230 265 7,200 -960 Descending Vancouver Center
06:06PM 52.9833 -131.5167 310° West 230 265 6,300 -1,020 Descending Vancouver Center
06:07PM 53.0167 -131.6000 304° West 220 253 5,200 -1,140 Descending Vancouver Center
06:08PM 53.0500 -131.6667 310° West 210 242 4,100 -1,140 Descending Vancouver Center
06:09PM 53.1000 -131.7000 338° Northwest 190 219 3,000 -960 Descending Vancouver Center
06:10PM 53.1500 -131.7333 338° Northwest 180 207 2,200 -900 Descending Vancouver Center
06:11PM 53.1833 -131.7667 329° Northwest 160 184 1,300 -840 Descending Vancouver Center
06:12PM 53.2167 -131.8000 329° Northwest 130 150 600 -720 Descending Vancouver Center